sensor_id;sensor_type;location;lat;lon;timestamp;P1;durP1;ratioP1;P2;durP2;ratioP2
40489;SDS011;26196;52.302;10.572;2022-11-14T00:01:58;16.73;;;10.27;;
40489;SDS011;26196;52.302;10.572;2022-11-14T00:05:58;16.98;;;11.27;;
40489;SDS011;26196;52.302;10.572;2022-11-14T00:09:59;13.90;;;9.77;;
40489;SDS011;26196;52.302;10.572;2022-11-14T00:13:59;14.85;;;9.85;;
40489;SDS011;26196;52.302;10.572;2022-11-14T00:18:00;14.98;;;8.98;;
40489;SDS011;26196;52.302;10.572;2022-11-14T00:22:00;15.17;;;9.27;;
40489;SDS011;26196;52.302;10.572;2022-11-14T00:26:00;14.68;;;8.80;;
40489;SDS011;26196;52.302;10.572;2022-11-14T00:30:01;15.50;;;10.18;;
40489;SDS011;26196;52.302;10.572;2022-11-14T00:34:01;16.13;;;10.57;;
40489;SDS011;26196;52.302;10.572;2022-11-14T00:38:02;15.25;;;9.73;;
40489;SDS011;26196;52.302;10.572;2022-11-14T00:42:02;13.90;;;9.65;;
40489;SDS011;26196;52.302;10.572;2022-11-14T00:46:02;16.63;;;10.68;;
40489;SDS011;26196;52.302;10.572;2022-11-14T00:50:03;15.25;;;9.18;;
40489;SDS011;26196;52.302;10.572;2022-11-14T00:54:04;15.20;;;10.25;;
40489;SDS011;26196;52.302;10.572;2022-11-14T00:58:04;15.50;;;9.73;;
40489;SDS011;26196;52.302;10.572;2022-11-14T01:02:05;15.50;;;10.63;;
40489;SDS011;26196;52.302;10.572;2022-11-14T01:06:06;14.73;;;9.93;;
40489;SDS011;26196;52.302;10.572;2022-11-14T01:10:08;16.58;;;10.23;;
40489;SDS011;26196;52.302;10.572;2022-11-14T01:14:09;13.65;;;9.52;;
40489;SDS011;26196;52.302;10.572;2022-11-14T01:18:10;15.05;;;10.20;;
40489;SDS011;26196;52.302;10.572;2022-11-14T01:22:11;12.90;;;8.38;;
40489;SDS011;26196;52.302;10.572;2022-11-14T01:26:12;13.30;;;8.93;;
40489;SDS011;26196;52.302;10.572;2022-11-14T01:30:14;15.23;;;10.18;;
40489;SDS011;26196;52.302;10.572;2022-11-14T01:34:14;14.85;;;9.20;;
40489;SDS011;26196;52.302;10.572;2022-11-14T01:38:14;14.27;;;8.50;;
40489;SDS011;26196;52.302;10.572;2022-11-14T01:42:15;17.98;;;10.35;;
40489;SDS011;26196;52.302;10.572;2022-11-14T01:50:27;15.63;;;10.25;;
40489;SDS011;26196;52.302;10.572;2022-11-14T01:54:29;11.07;;;7.78;;
40489;SDS011;26196;52.302;10.572;2022-11-14T01:58:34;16.20;;;9.73;;
40489;SDS011;26196;52.302;10.572;2022-11-14T02:02:39;14.68;;;9.38;;
40489;SDS011;26196;52.302;10.572;2022-11-14T02:06:40;15.02;;;9.23;;
40489;SDS011;26196;52.302;10.572;2022-11-14T02:10:41;17.15;;;9.98;;
40489;SDS011;26196;52.302;10.572;2022-11-14T02:14:42;17.80;;;10.77;;
40489;SDS011;26196;52.302;10.572;2022-11-14T02:18:44;14.20;;;9.35;;
40489;SDS011;26196;52.302;10.572;2022-11-14T02:22:44;15.17;;;9.23;;
40489;SDS011;26196;52.302;10.572;2022-11-14T02:26:44;19.38;;;10.43;;
40489;SDS011;26196;52.302;10.572;2022-11-14T02:30:45;13.75;;;8.50;;
40489;SDS011;26196;52.302;10.572;2022-11-14T02:34:45;13.07;;;8.03;;
40489;SDS011;26196;52.302;10.572;2022-11-14T02:38:46;15.60;;;9.80;;
40489;SDS011;26196;52.302;10.572;2022-11-14T02:42:46;17.52;;;9.73;;
40489;SDS011;26196;52.302;10.572;2022-11-14T02:46:46;16.92;;;10.20;;
40489;SDS011;26196;52.302;10.572;2022-11-14T02:50:47;17.15;;;10.75;;
40489;SDS011;26196;52.302;10.572;2022-11-14T02:54:48;21.10;;;10.07;;
40489;SDS011;26196;52.302;10.572;2022-11-14T02:58:48;15.90;;;9.77;;
40489;SDS011;26196;52.302;10.572;2022-11-14T03:02:48;17.73;;;9.68;;
40489;SDS011;26196;52.302;10.572;2022-11-14T03:06:49;20.17;;;12.57;;
40489;SDS011;26196;52.302;10.572;2022-11-14T03:10:49;16.77;;;10.35;;
40489;SDS011;26196;52.302;10.572;2022-11-14T03:14:50;16.58;;;9.88;;
40489;SDS011;26196;52.302;10.572;2022-11-14T03:18:50;20.00;;;11.63;;
40489;SDS011;26196;52.302;10.572;2022-11-14T03:22:50;22.20;;;12.18;;
40489;SDS011;26196;52.302;10.572;2022-11-14T03:26:51;19.40;;;11.80;;
40489;SDS011;26196;52.302;10.572;2022-11-14T03:30:51;22.48;;;12.43;;
40489;SDS011;26196;52.302;10.572;2022-11-14T03:34:51;18.20;;;10.57;;
40489;SDS011;26196;52.302;10.572;2022-11-14T03:38:52;16.17;;;9.30;;
40489;SDS011;26196;52.302;10.572;2022-11-14T03:42:52;18.97;;;11.97;;
40489;SDS011;26196;52.302;10.572;2022-11-14T03:46:52;20.17;;;10.98;;
40489;SDS011;26196;52.302;10.572;2022-11-14T03:50:53;22.25;;;12.82;;
40489;SDS011;26196;52.302;10.572;2022-11-14T03:54:53;18.42;;;10.07;;
40489;SDS011;26196;52.302;10.572;2022-11-14T03:58:53;19.15;;;10.23;;
40489;SDS011;26196;52.302;10.572;2022-11-14T04:02:54;18.58;;;10.23;;
40489;SDS011;26196;52.302;10.572;2022-11-14T04:06:55;16.88;;;9.68;;
40489;SDS011;26196;52.302;10.572;2022-11-14T04:10:56;18.42;;;9.70;;
40489;SDS011;26196;52.302;10.572;2022-11-14T04:14:56;19.70;;;11.30;;
40489;SDS011;26196;52.302;10.572;2022-11-14T04:18:57;19.10;;;10.63;;
40489;SDS011;26196;52.302;10.572;2022-11-14T04:22:57;18.08;;;10.50;;
40489;SDS011;26196;52.302;10.572;2022-11-14T04:26:57;30.33;;;13.70;;
40489;SDS011;26196;52.302;10.572;2022-11-14T04:30:58;28.23;;;12.93;;
40489;SDS011;26196;52.302;10.572;2022-11-14T04:34:59;28.42;;;12.55;;
40489;SDS011;26196;52.302;10.572;2022-11-14T04:38:59;18.30;;;10.45;;
40489;SDS011;26196;52.302;10.572;2022-11-14T04:43:00;23.52;;;12.60;;
40489;SDS011;26196;52.302;10.572;2022-11-14T04:47:00;17.25;;;10.93;;
40489;SDS011;26196;52.302;10.572;2022-11-14T04:51:01;18.08;;;10.75;;
40489;SDS011;26196;52.302;10.572;2022-11-14T04:55:01;24.75;;;13.60;;
40489;SDS011;26196;52.302;10.572;2022-11-14T04:59:02;26.73;;;13.38;;
40489;SDS011;26196;52.302;10.572;2022-11-14T05:03:02;24.67;;;13.07;;
40489;SDS011;26196;52.302;10.572;2022-11-14T05:07:02;25.27;;;14.27;;
40489;SDS011;26196;52.302;10.572;2022-11-14T05:11:03;16.55;;;10.25;;
40489;SDS011;26196;52.302;10.572;2022-11-14T05:15:03;19.73;;;10.95;;
40489;SDS011;26196;52.302;10.572;2022-11-14T05:19:04;22.33;;;10.38;;
40489;SDS011;26196;52.302;10.572;2022-11-14T05:23:04;22.10;;;12.13;;
40489;SDS011;26196;52.302;10.572;2022-11-14T05:27:05;23.05;;;13.23;;
40489;SDS011;26196;52.302;10.572;2022-11-14T05:31:06;18.85;;;11.35;;
40489;SDS011;26196;52.302;10.572;2022-11-14T05:35:08;28.33;;;13.60;;
40489;SDS011;26196;52.302;10.572;2022-11-14T05:39:09;24.65;;;12.60;;
40489;SDS011;26196;52.302;10.572;2022-11-14T05:43:09;27.27;;;12.60;;
40489;SDS011;26196;52.302;10.572;2022-11-14T05:47:10;26.70;;;13.32;;
40489;SDS011;26196;52.302;10.572;2022-11-14T05:51:11;23.23;;;12.00;;
40489;SDS011;26196;52.302;10.572;2022-11-14T05:55:12;24.20;;;13.38;;
40489;SDS011;26196;52.302;10.572;2022-11-14T05:59:12;25.10;;;11.98;;
40489;SDS011;26196;52.302;10.572;2022-11-14T06:03:12;23.97;;;12.83;;
40489;SDS011;26196;52.302;10.572;2022-11-14T06:07:14;29.90;;;14.45;;
40489;SDS011;26196;52.302;10.572;2022-11-14T06:11:15;24.38;;;13.50;;
40489;SDS011;26196;52.302;10.572;2022-11-14T06:15:17;32.35;;;18.90;;
40489;SDS011;26196;52.302;10.572;2022-11-14T06:19:18;36.28;;;20.15;;
40489;SDS011;26196;52.302;10.572;2022-11-14T06:23:20;32.13;;;18.33;;
40489;SDS011;26196;52.302;10.572;2022-11-14T06:27:21;32.13;;;19.60;;
40489;SDS011;26196;52.302;10.572;2022-11-14T06:31:21;36.27;;;21.70;;
40489;SDS011;26196;52.302;10.572;2022-11-14T06:35:23;31.08;;;17.85;;
40489;SDS011;26196;52.302;10.572;2022-11-14T06:39:23;38.03;;;21.55;;
40489;SDS011;26196;52.302;10.572;2022-11-14T06:43:23;45.13;;;25.23;;
40489;SDS011;26196;52.302;10.572;2022-11-14T06:47:24;36.27;;;19.57;;
40489;SDS011;26196;52.302;10.572;2022-11-14T06:51:24;38.25;;;21.15;;
40489;SDS011;26196;52.302;10.572;2022-11-14T06:55:24;39.03;;;20.80;;
40489;SDS011;26196;52.302;10.572;2022-11-14T06:59:25;37.80;;;20.90;;
40489;SDS011;26196;52.302;10.572;2022-11-14T07:03:25;32.03;;;18.55;;
40489;SDS011;26196;52.302;10.572;2022-11-14T07:07:25;32.23;;;19.37;;
40489;SDS011;26196;52.302;10.572;2022-11-14T07:11:26;37.40;;;21.85;;
40489;SDS011;26196;52.302;10.572;2022-11-14T07:15:28;42.47;;;20.77;;
40489;SDS011;26196;52.302;10.572;2022-11-14T07:19:29;35.97;;;21.17;;
40489;SDS011;26196;52.302;10.572;2022-11-14T07:23:29;35.50;;;20.30;;
40489;SDS011;26196;52.302;10.572;2022-11-14T07:27:31;34.72;;;21.25;;
40489;SDS011;26196;52.302;10.572;2022-11-14T07:31:31;38.55;;;23.13;;
40489;SDS011;26196;52.302;10.572;2022-11-14T07:35:32;41.53;;;22.23;;
40489;SDS011;26196;52.302;10.572;2022-11-14T07:39:32;24.42;;;13.63;;
40489;SDS011;26196;52.302;10.572;2022-11-14T07:43:33;28.02;;;14.95;;
40489;SDS011;26196;52.302;10.572;2022-11-14T07:47:33;19.38;;;11.30;;
40489;SDS011;26196;52.302;10.572;2022-11-14T07:51:34;19.20;;;10.80;;
40489;SDS011;26196;52.302;10.572;2022-11-14T07:55:34;18.67;;;10.57;;
40489;SDS011;26196;52.302;10.572;2022-11-14T07:59:36;19.45;;;11.32;;
40489;SDS011;26196;52.302;10.572;2022-11-14T08:03:37;26.27;;;14.45;;
40489;SDS011;26196;52.302;10.572;2022-11-14T08:07:37;25.77;;;13.95;;
40489;SDS011;26196;52.302;10.572;2022-11-14T08:11:38;18.75;;;12.38;;
40489;SDS011;26196;52.302;10.572;2022-11-14T08:15:47;23.63;;;12.98;;
40489;SDS011;26196;52.302;10.572;2022-11-14T08:19:47;21.23;;;12.87;;
40489;SDS011;26196;52.302;10.572;2022-11-14T08:23:48;23.67;;;13.40;;
40489;SDS011;26196;52.302;10.572;2022-11-14T08:27:48;19.50;;;11.85;;
40489;SDS011;26196;52.302;10.572;2022-11-14T08:31:48;18.77;;;10.33;;
40489;SDS011;26196;52.302;10.572;2022-11-14T08:35:49;17.67;;;10.52;;
40489;SDS011;26196;52.302;10.572;2022-11-14T08:39:49;22.43;;;13.83;;
40489;SDS011;26196;52.302;10.572;2022-11-14T08:43:49;19.20;;;11.57;;
40489;SDS011;26196;52.302;10.572;2022-11-14T08:47:50;20.73;;;12.80;;
40489;SDS011;26196;52.302;10.572;2022-11-14T08:51:52;20.05;;;12.60;;
40489;SDS011;26196;52.302;10.572;2022-11-14T08:55:52;24.15;;;14.23;;
40489;SDS011;26196;52.302;10.572;2022-11-14T08:59:53;22.92;;;12.63;;
40489;SDS011;26196;52.302;10.572;2022-11-14T09:03:54;21.70;;;12.75;;
40489;SDS011;26196;52.302;10.572;2022-11-14T09:07:54;15.43;;;9.73;;
40489;SDS011;26196;52.302;10.572;2022-11-14T09:11:55;18.65;;;11.57;;
40489;SDS011;26196;52.302;10.572;2022-11-14T09:15:55;18.85;;;11.75;;
40489;SDS011;26196;52.302;10.572;2022-11-14T09:19:56;19.65;;;11.88;;
40489;SDS011;26196;52.302;10.572;2022-11-14T09:23:56;20.00;;;12.83;;
40489;SDS011;26196;52.302;10.572;2022-11-14T09:27:56;24.97;;;13.30;;
40489;SDS011;26196;52.302;10.572;2022-11-14T09:31:57;20.08;;;11.82;;
40489;SDS011;26196;52.302;10.572;2022-11-14T09:35:58;15.60;;;10.70;;
40489;SDS011;26196;52.302;10.572;2022-11-14T09:40:00;19.42;;;11.75;;
40489;SDS011;26196;52.302;10.572;2022-11-14T09:48:36;20.70;;;11.90;;
40489;SDS011;26196;52.302;10.572;2022-11-14T09:52:37;19.20;;;12.20;;
40489;SDS011;26196;52.302;10.572;2022-11-14T09:56:46;15.38;;;9.85;;
40489;SDS011;26196;52.302;10.572;2022-11-14T10:00:52;18.30;;;11.70;;
40489;SDS011;26196;52.302;10.572;2022-11-14T10:18:04;18.55;;;11.90;;
40489;SDS011;26196;52.302;10.572;2022-11-14T10:22:19;17.70;;;11.88;;
40489;SDS011;26196;52.302;10.572;2022-11-14T10:26:38;19.25;;;11.82;;
40489;SDS011;26196;52.302;10.572;2022-11-14T10:35:04;18.23;;;11.85;;
40489;SDS011;26196;52.302;10.572;2022-11-14T10:43:48;18.17;;;11.45;;
40489;SDS011;26196;52.302;10.572;2022-11-14T10:47:52;17.30;;;10.48;;
40489;SDS011;26196;52.302;10.572;2022-11-14T10:55:59;16.92;;;10.63;;
40489;SDS011;26196;52.302;10.572;2022-11-14T11:00:00;17.90;;;10.57;;
40489;SDS011;26196;52.302;10.572;2022-11-14T11:05:02;16.48;;;9.90;;
40489;SDS011;26196;52.302;10.572;2022-11-14T11:08:48;15.32;;;10.90;;
40489;SDS011;26196;52.302;10.572;2022-11-14T11:13:09;17.75;;;10.15;;
40489;SDS011;26196;52.302;10.572;2022-11-14T11:21:21;17.10;;;10.02;;
40489;SDS011;26196;52.302;10.572;2022-11-14T11:25:26;12.77;;;9.30;;
40489;SDS011;26196;52.302;10.572;2022-11-14T11:29:28;15.63;;;9.88;;
40489;SDS011;26196;52.302;10.572;2022-11-14T11:33:29;14.93;;;10.23;;
40489;SDS011;26196;52.302;10.572;2022-11-14T11:41:56;14.38;;;10.18;;
40489;SDS011;26196;52.302;10.572;2022-11-14T11:46:02;13.60;;;9.47;;
40489;SDS011;26196;52.302;10.572;2022-11-14T11:50:13;15.10;;;9.13;;
40489;SDS011;26196;52.302;10.572;2022-11-14T11:54:17;14.45;;;9.63;;
40489;SDS011;26196;52.302;10.572;2022-11-14T11:58:27;15.75;;;10.30;;
40489;SDS011;26196;52.302;10.572;2022-11-14T12:02:52;13.65;;;9.75;;
40489;SDS011;26196;52.302;10.572;2022-11-14T12:07:09;15.00;;;9.70;;
40489;SDS011;26196;52.302;10.572;2022-11-14T12:11:16;12.57;;;8.93;;
40489;SDS011;26196;52.302;10.572;2022-11-14T12:32:13;12.75;;;8.88;;
40489;SDS011;26196;52.302;10.572;2022-11-14T12:36:26;15.88;;;10.18;;
40489;SDS011;26196;52.302;10.572;2022-11-14T12:40:35;15.40;;;9.55;;
40489;SDS011;26196;52.302;10.572;2022-11-14T12:44:38;12.85;;;8.63;;
40489;SDS011;26196;52.302;10.572;2022-11-14T12:48:43;14.07;;;9.82;;
40489;SDS011;26196;52.302;10.572;2022-11-14T12:52:45;14.48;;;9.40;;
40489;SDS011;26196;52.302;10.572;2022-11-14T12:56:52;14.33;;;9.37;;
40489;SDS011;26196;52.302;10.572;2022-11-14T13:01:14;17.27;;;10.15;;
40489;SDS011;26196;52.302;10.572;2022-11-14T13:13:59;15.65;;;10.73;;
40489;SDS011;26196;52.302;10.572;2022-11-14T13:22:39;14.77;;;10.00;;
40489;SDS011;26196;52.302;10.572;2022-11-14T13:31:41;12.38;;;8.68;;
40489;SDS011;26196;52.302;10.572;2022-11-14T13:35:12;13.82;;;8.88;;
40489;SDS011;26196;52.302;10.572;2022-11-14T13:48:40;16.20;;;9.88;;
40489;SDS011;26196;52.302;10.572;2022-11-14T13:52:51;13.82;;;8.95;;
40489;SDS011;26196;52.302;10.572;2022-11-14T14:05:26;12.35;;;8.57;;
40489;SDS011;26196;52.302;10.572;2022-11-14T14:09:35;10.90;;;8.65;;
40489;SDS011;26196;52.302;10.572;2022-11-14T14:18:22;13.95;;;8.05;;
40489;SDS011;26196;52.302;10.572;2022-11-14T14:31:09;10.05;;;7.63;;
40489;SDS011;26196;52.302;10.572;2022-11-14T14:39:25;12.07;;;8.60;;
40489;SDS011;26196;52.302;10.572;2022-11-14T14:43:33;11.55;;;7.22;;
40489;SDS011;26196;52.302;10.572;2022-11-14T14:47:38;11.05;;;7.55;;
40489;SDS011;26196;52.302;10.572;2022-11-14T14:51:40;9.93;;;7.50;;
40489;SDS011;26196;52.302;10.572;2022-11-14T14:55:49;11.02;;;7.53;;
40489;SDS011;26196;52.302;10.572;2022-11-14T15:00:04;9.85;;;7.35;;
40489;SDS011;26196;52.302;10.572;2022-11-14T15:04:07;13.30;;;7.85;;
40489;SDS011;26196;52.302;10.572;2022-11-14T15:12:15;14.85;;;7.63;;
40489;SDS011;26196;52.302;10.572;2022-11-14T15:16:15;18.52;;;7.65;;
40489;SDS011;26196;52.302;10.572;2022-11-14T15:20:19;12.15;;;7.00;;
40489;SDS011;26196;52.302;10.572;2022-11-14T15:24:24;12.02;;;7.22;;
40489;SDS011;26196;52.302;10.572;2022-11-14T15:28:25;10.35;;;7.18;;
40489;SDS011;26196;52.302;10.572;2022-11-14T15:32:26;11.38;;;7.55;;
40489;SDS011;26196;52.302;10.572;2022-11-14T15:36:27;10.40;;;7.07;;
40489;SDS011;26196;52.302;10.572;2022-11-14T15:40:28;10.57;;;6.70;;
40489;SDS011;26196;52.302;10.572;2022-11-14T15:44:30;10.55;;;6.82;;
40489;SDS011;26196;52.302;10.572;2022-11-14T15:48:31;12.50;;;8.05;;
40489;SDS011;26196;52.302;10.572;2022-11-14T15:52:36;10.25;;;6.70;;
40489;SDS011;26196;52.302;10.572;2022-11-14T15:56:46;14.23;;;9.27;;
40489;SDS011;26196;52.302;10.572;2022-11-14T16:00:50;9.85;;;7.20;;
40489;SDS011;26196;52.302;10.572;2022-11-14T16:04:52;12.90;;;7.88;;
40489;SDS011;26196;52.302;10.572;2022-11-14T16:08:53;14.02;;;8.27;;
40489;SDS011;26196;52.302;10.572;2022-11-14T16:12:53;9.10;;;6.10;;
40489;SDS011;26196;52.302;10.572;2022-11-14T16:16:54;12.70;;;6.85;;
40489;SDS011;26196;52.302;10.572;2022-11-14T16:20:54;10.37;;;6.67;;
40489;SDS011;26196;52.302;10.572;2022-11-14T16:24:58;8.73;;;6.82;;
40489;SDS011;26196;52.302;10.572;2022-11-14T16:28:59;9.32;;;7.07;;
40489;SDS011;26196;52.302;10.572;2022-11-14T16:32:59;10.02;;;7.00;;
40489;SDS011;26196;52.302;10.572;2022-11-14T16:37:00;9.35;;;6.90;;
40489;SDS011;26196;52.302;10.572;2022-11-14T16:41:04;9.77;;;6.70;;
40489;SDS011;26196;52.302;10.572;2022-11-14T16:45:06;8.68;;;6.72;;
40489;SDS011;26196;52.302;10.572;2022-11-14T16:49:06;8.93;;;6.72;;
40489;SDS011;26196;52.302;10.572;2022-11-14T16:53:08;8.85;;;6.65;;
40489;SDS011;26196;52.302;10.572;2022-11-14T16:57:08;9.77;;;7.20;;
40489;SDS011;26196;52.302;10.572;2022-11-14T17:01:12;10.30;;;8.02;;
40489;SDS011;26196;52.302;10.572;2022-11-14T17:05:14;8.35;;;6.72;;
40489;SDS011;26196;52.302;10.572;2022-11-14T17:09:15;7.93;;;6.30;;
40489;SDS011;26196;52.302;10.572;2022-11-14T17:13:15;8.50;;;5.95;;
40489;SDS011;26196;52.302;10.572;2022-11-14T17:17:16;7.75;;;6.57;;
40489;SDS011;26196;52.302;10.572;2022-11-14T17:21:16;9.40;;;6.93;;
40489;SDS011;26196;52.302;10.572;2022-11-14T17:25:17;7.70;;;5.53;;
40489;SDS011;26196;52.302;10.572;2022-11-14T17:29:17;9.27;;;6.93;;
40489;SDS011;26196;52.302;10.572;2022-11-14T17:33:18;7.70;;;5.50;;
40489;SDS011;26196;52.302;10.572;2022-11-14T17:37:18;7.55;;;5.60;;
40489;SDS011;26196;52.302;10.572;2022-11-14T17:41:18;8.48;;;6.72;;
40489;SDS011;26196;52.302;10.572;2022-11-14T17:45:19;7.97;;;6.25;;
40489;SDS011;26196;52.302;10.572;2022-11-14T17:49:20;6.30;;;5.13;;
40489;SDS011;26196;52.302;10.572;2022-11-14T17:53:20;8.80;;;6.03;;
40489;SDS011;26196;52.302;10.572;2022-11-14T17:57:20;7.05;;;5.03;;
40489;SDS011;26196;52.302;10.572;2022-11-14T18:01:22;6.75;;;5.63;;
40489;SDS011;26196;52.302;10.572;2022-11-14T18:05:23;6.65;;;5.38;;
40489;SDS011;26196;52.302;10.572;2022-11-14T18:09:23;9.18;;;6.50;;
40489;SDS011;26196;52.302;10.572;2022-11-14T18:13:25;9.02;;;5.60;;
40489;SDS011;26196;52.302;10.572;2022-11-14T18:17:26;8.43;;;5.32;;
40489;SDS011;26196;52.302;10.572;2022-11-14T18:21:26;7.37;;;5.50;;
40489;SDS011;26196;52.302;10.572;2022-11-14T18:25:27;8.43;;;5.88;;
40489;SDS011;26196;52.302;10.572;2022-11-14T18:29:27;7.95;;;5.38;;
40489;SDS011;26196;52.302;10.572;2022-11-14T18:33:29;8.57;;;5.90;;
40489;SDS011;26196;52.302;10.572;2022-11-14T18:37:30;8.40;;;5.73;;
40489;SDS011;26196;52.302;10.572;2022-11-14T18:41:31;9.35;;;6.20;;
40489;SDS011;26196;52.302;10.572;2022-11-14T18:45:33;7.97;;;6.20;;
40489;SDS011;26196;52.302;10.572;2022-11-14T18:49:33;9.93;;;7.22;;
40489;SDS011;26196;52.302;10.572;2022-11-14T18:53:34;12.97;;;8.40;;
40489;SDS011;26196;52.302;10.572;2022-11-14T18:57:35;9.63;;;7.65;;
40489;SDS011;26196;52.302;10.572;2022-11-14T19:01:35;11.60;;;7.47;;
40489;SDS011;26196;52.302;10.572;2022-11-14T19:05:36;10.05;;;7.22;;
40489;SDS011;26196;52.302;10.572;2022-11-14T19:09:37;8.00;;;6.43;;
40489;SDS011;26196;52.302;10.572;2022-11-14T19:13:38;8.35;;;6.75;;
40489;SDS011;26196;52.302;10.572;2022-11-14T19:17:38;8.83;;;6.63;;
40489;SDS011;26196;52.302;10.572;2022-11-14T19:21:39;7.80;;;5.63;;
40489;SDS011;26196;52.302;10.572;2022-11-14T19:25:39;8.55;;;6.07;;
40489;SDS011;26196;52.302;10.572;2022-11-14T19:29:40;7.60;;;5.53;;
40489;SDS011;26196;52.302;10.572;2022-11-14T19:33:40;8.10;;;5.90;;
40489;SDS011;26196;52.302;10.572;2022-11-14T19:37:41;9.07;;;6.13;;
40489;SDS011;26196;52.302;10.572;2022-11-14T19:41:42;12.95;;;6.60;;
40489;SDS011;26196;52.302;10.572;2022-11-14T19:45:42;11.07;;;6.20;;
40489;SDS011;26196;52.302;10.572;2022-11-14T19:49:42;10.10;;;6.53;;
40489;SDS011;26196;52.302;10.572;2022-11-14T19:53:43;10.63;;;7.28;;
40489;SDS011;26196;52.302;10.572;2022-11-14T19:57:45;11.15;;;7.00;;
40489;SDS011;26196;52.302;10.572;2022-11-14T20:01:45;9.20;;;7.05;;
40489;SDS011;26196;52.302;10.572;2022-11-14T20:05:45;8.15;;;7.05;;
40489;SDS011;26196;52.302;10.572;2022-11-14T20:09:46;11.60;;;7.80;;
40489;SDS011;26196;52.302;10.572;2022-11-14T20:13:46;9.33;;;6.67;;
40489;SDS011;26196;52.302;10.572;2022-11-14T20:17:46;11.80;;;7.80;;
40489;SDS011;26196;52.302;10.572;2022-11-14T20:21:47;10.03;;;7.63;;
40489;SDS011;26196;52.302;10.572;2022-11-14T20:25:51;13.50;;;7.30;;
40489;SDS011;26196;52.302;10.572;2022-11-14T20:29:51;10.88;;;7.30;;
40489;SDS011;26196;52.302;10.572;2022-11-14T20:33:52;12.25;;;7.53;;
40489;SDS011;26196;52.302;10.572;2022-11-14T20:37:54;13.88;;;8.27;;
40489;SDS011;26196;52.302;10.572;2022-11-14T20:41:54;11.33;;;8.30;;
40489;SDS011;26196;52.302;10.572;2022-11-14T20:45:55;12.95;;;8.40;;
40489;SDS011;26196;52.302;10.572;2022-11-14T20:50:00;9.85;;;7.00;;
40489;SDS011;26196;52.302;10.572;2022-11-14T20:54:02;9.48;;;7.05;;
40489;SDS011;26196;52.302;10.572;2022-11-14T20:58:02;13.20;;;6.85;;
40489;SDS011;26196;52.302;10.572;2022-11-14T21:02:03;8.18;;;6.45;;
40489;SDS011;26196;52.302;10.572;2022-11-14T21:06:03;8.52;;;6.30;;
40489;SDS011;26196;52.302;10.572;2022-11-14T21:10:06;8.65;;;6.88;;
40489;SDS011;26196;52.302;10.572;2022-11-14T21:14:25;9.55;;;6.50;;
40489;SDS011;26196;52.302;10.572;2022-11-14T21:18:26;8.48;;;5.97;;
40489;SDS011;26196;52.302;10.572;2022-11-14T21:22:26;7.63;;;6.28;;
40489;SDS011;26196;52.302;10.572;2022-11-14T21:26:28;7.60;;;5.73;;
40489;SDS011;26196;52.302;10.572;2022-11-14T21:30:30;8.95;;;6.25;;
40489;SDS011;26196;52.302;10.572;2022-11-14T21:34:31;8.00;;;6.10;;
40489;SDS011;26196;52.302;10.572;2022-11-14T21:38:33;7.22;;;4.82;;
40489;SDS011;26196;52.302;10.572;2022-11-14T21:42:33;6.72;;;5.25;;
40489;SDS011;26196;52.302;10.572;2022-11-14T21:46:33;6.47;;;5.00;;
40489;SDS011;26196;52.302;10.572;2022-11-14T21:50:34;5.45;;;3.97;;
40489;SDS011;26196;52.302;10.572;2022-11-14T21:54:34;5.78;;;4.80;;
40489;SDS011;26196;52.302;10.572;2022-11-14T21:58:36;7.63;;;4.20;;
40489;SDS011;26196;52.302;10.572;2022-11-14T22:02:36;5.80;;;4.28;;
40489;SDS011;26196;52.302;10.572;2022-11-14T22:06:55;7.65;;;5.70;;
40489;SDS011;26196;52.302;10.572;2022-11-14T22:10:59;5.70;;;4.03;;
40489;SDS011;26196;52.302;10.572;2022-11-14T22:15:01;6.15;;;4.57;;
40489;SDS011;26196;52.302;10.572;2022-11-14T22:19:01;7.80;;;4.93;;
40489;SDS011;26196;52.302;10.572;2022-11-14T22:23:02;5.10;;;3.63;;
40489;SDS011;26196;52.302;10.572;2022-11-14T22:27:03;7.17;;;4.83;;
40489;SDS011;26196;52.302;10.572;2022-11-14T22:31:04;5.22;;;3.90;;
40489;SDS011;26196;52.302;10.572;2022-11-14T22:35:09;7.38;;;4.22;;
40489;SDS011;26196;52.302;10.572;2022-11-14T22:39:10;5.47;;;3.95;;
40489;SDS011;26196;52.302;10.572;2022-11-14T22:43:10;6.03;;;4.63;;
40489;SDS011;26196;52.302;10.572;2022-11-14T22:47:10;4.43;;;3.67;;
40489;SDS011;26196;52.302;10.572;2022-11-14T22:51:15;5.80;;;4.10;;
40489;SDS011;26196;52.302;10.572;2022-11-14T22:55:17;4.28;;;3.03;;
40489;SDS011;26196;52.302;10.572;2022-11-14T22:59:17;6.07;;;3.97;;
40489;SDS011;26196;52.302;10.572;2022-11-14T23:03:18;4.77;;;3.77;;
40489;SDS011;26196;52.302;10.572;2022-11-14T23:07:19;5.53;;;4.15;;
40489;SDS011;26196;52.302;10.572;2022-11-14T23:11:23;5.05;;;3.90;;
40489;SDS011;26196;52.302;10.572;2022-11-14T23:15:25;4.57;;;3.80;;
40489;SDS011;26196;52.302;10.572;2022-11-14T23:19:26;3.83;;;3.28;;
40489;SDS011;26196;52.302;10.572;2022-11-14T23:23:26;4.37;;;3.10;;
40489;SDS011;26196;52.302;10.572;2022-11-14T23:27:27;5.05;;;3.88;;
40489;SDS011;26196;52.302;10.572;2022-11-14T23:31:27;5.70;;;3.60;;
40489;SDS011;26196;52.302;10.572;2022-11-14T23:35:27;4.82;;;3.60;;
40489;SDS011;26196;52.302;10.572;2022-11-14T23:39:28;4.43;;;3.27;;
40489;SDS011;26196;52.302;10.572;2022-11-14T23:43:28;4.47;;;3.53;;
40489;SDS011;26196;52.302;10.572;2022-11-14T23:47:29;5.88;;;4.30;;
40489;SDS011;26196;52.302;10.572;2022-11-14T23:51:29;4.70;;;3.88;;
40489;SDS011;26196;52.302;10.572;2022-11-14T23:55:30;5.13;;;4.40;;
40489;SDS011;26196;52.302;10.572;2022-11-14T23:59:30;4.90;;;3.63;;
